sensor_id;sensor_type;location;lat;lon;timestamp;temperature;humidity
6421;DHT22;3243;50.958;7.012;2022-07-29T00:02:25;18.80;99.90
6421;DHT22;3243;50.958;7.012;2022-07-29T00:04:52;19.00;99.90
6421;DHT22;3243;50.958;7.012;2022-07-29T00:07:19;19.00;99.90
6421;DHT22;3243;50.958;7.012;2022-07-29T00:12:22;18.90;99.90
6421;DHT22;3243;50.958;7.012;2022-07-29T00:14:56;18.90;99.90
6421;DHT22;3243;50.958;7.012;2022-07-29T00:17:24;18.90;99.90
6421;DHT22;3243;50.958;7.012;2022-07-29T00:32:06;18.90;99.90
6421;DHT22;3243;50.958;7.012;2022-07-29T00:37:19;18.90;99.90
6421;DHT22;3243;50.958;7.012;2022-07-29T00:42:13;18.90;99.90
6421;DHT22;3243;50.958;7.012;2022-07-29T00:44:41;18.90;99.90
6421;DHT22;3243;50.958;7.012;2022-07-29T00:47:09;18.90;99.90
6421;DHT22;3243;50.958;7.012;2022-07-29T00:49:39;18.90;99.90
6421;DHT22;3243;50.958;7.012;2022-07-29T00:52:07;18.80;99.90
6421;DHT22;3243;50.958;7.012;2022-07-29T00:54:35;18.80;99.90
6421;DHT22;3243;50.958;7.012;2022-07-29T00:57:11;18.80;99.90
6421;DHT22;3243;50.958;7.012;2022-07-29T00:59:38;18.80;99.90
6421;DHT22;3243;50.958;7.012;2022-07-29T01:02:05;18.80;99.90
6421;DHT22;3243;50.958;7.012;2022-07-29T01:04:32;18.80;99.90
6421;DHT22;3243;50.958;7.012;2022-07-29T01:07:04;18.80;99.90
6421;DHT22;3243;50.958;7.012;2022-07-29T01:09:35;18.70;99.90
6421;DHT22;3243;50.958;7.012;2022-07-29T01:12:18;18.70;99.90
6421;DHT22;3243;50.958;7.012;2022-07-29T01:14:47;18.60;99.90
6421;DHT22;3243;50.958;7.012;2022-07-29T01:17:36;18.80;99.90
6421;DHT22;3243;50.958;7.012;2022-07-29T01:20:14;18.80;99.90
6421;DHT22;3243;50.958;7.012;2022-07-29T01:25:58;18.70;99.90
6421;DHT22;3243;50.958;7.012;2022-07-29T01:31:22;18.70;99.90
6421;DHT22;3243;50.958;7.012;2022-07-29T01:33:57;18.70;99.90
6421;DHT22;3243;50.958;7.012;2022-07-29T01:36:39;18.70;99.90
6421;DHT22;3243;50.958;7.012;2022-07-29T01:39:23;18.60;99.90
6421;DHT22;3243;50.958;7.012;2022-07-29T01:42:20;18.60;99.90
6421;DHT22;3243;50.958;7.012;2022-07-29T01:45:06;18.60;99.90
6421;DHT22;3243;50.958;7.012;2022-07-29T01:47:40;18.60;99.90
6421;DHT22;3243;50.958;7.012;2022-07-29T01:50:11;18.50;99.90
6421;DHT22;3243;50.958;7.012;2022-07-29T01:52:56;18.50;99.90
6421;DHT22;3243;50.958;7.012;2022-07-29T01:55:27;18.50;99.90
6421;DHT22;3243;50.958;7.012;2022-07-29T01:57:56;18.50;99.90
6421;DHT22;3243;50.958;7.012;2022-07-29T02:00:25;18.40;99.90
6421;DHT22;3243;50.958;7.012;2022-07-29T02:02:53;18.40;99.90
6421;DHT22;3243;50.958;7.012;2022-07-29T02:05:41;18.30;99.90
6421;DHT22;3243;50.958;7.012;2022-07-29T02:08:10;18.30;99.90
6421;DHT22;3243;50.958;7.012;2022-07-29T02:10:38;18.30;99.90
6421;DHT22;3243;50.958;7.012;2022-07-29T02:13:07;18.20;99.90
6421;DHT22;3243;50.958;7.012;2022-07-29T02:15:36;18.20;99.90
6421;DHT22;3243;50.958;7.012;2022-07-29T02:18:24;18.10;99.90
6421;DHT22;3243;50.958;7.012;2022-07-29T02:20:53;18.10;99.90
6421;DHT22;3243;50.958;7.012;2022-07-29T02:23:23;18.10;99.90
6421;DHT22;3243;50.958;7.012;2022-07-29T02:25:55;18.00;99.90
6421;DHT22;3243;50.958;7.012;2022-07-29T02:28:25;17.90;99.90
6421;DHT22;3243;50.958;7.012;2022-07-29T02:30:58;17.90;99.90
6421;DHT22;3243;50.958;7.012;2022-07-29T02:33:27;17.80;99.90
6421;DHT22;3243;50.958;7.012;2022-07-29T02:35:56;17.80;99.90
6421;DHT22;3243;50.958;7.012;2022-07-29T02:38:24;17.70;99.90
6421;DHT22;3243;50.958;7.012;2022-07-29T02:41:13;17.60;99.90
6421;DHT22;3243;50.958;7.012;2022-07-29T02:43:42;17.60;99.90
6421;DHT22;3243;50.958;7.012;2022-07-29T02:46:14;17.50;99.90
6421;DHT22;3243;50.958;7.012;2022-07-29T02:49:06;17.50;99.90
6421;DHT22;3243;50.958;7.012;2022-07-29T02:51:41;17.50;99.90
6421;DHT22;3243;50.958;7.012;2022-07-29T02:54:14;17.50;99.90
6421;DHT22;3243;50.958;7.012;2022-07-29T02:56:45;17.50;99.90
6421;DHT22;3243;50.958;7.012;2022-07-29T02:59:14;17.50;99.90
6421;DHT22;3243;50.958;7.012;2022-07-29T03:01:43;17.40;99.90
6421;DHT22;3243;50.958;7.012;2022-07-29T03:04:12;17.40;99.90
6421;DHT22;3243;50.958;7.012;2022-07-29T03:06:40;17.30;99.90
6421;DHT22;3243;50.958;7.012;2022-07-29T03:09:10;17.20;99.90
6421;DHT22;3243;50.958;7.012;2022-07-29T03:11:41;17.30;99.90
6421;DHT22;3243;50.958;7.012;2022-07-29T03:14:19;17.30;99.90
6421;DHT22;3243;50.958;7.012;2022-07-29T03:16:47;17.50;99.90
6421;DHT22;3243;50.958;7.012;2022-07-29T03:19:15;17.60;99.90
6421;DHT22;3243;50.958;7.012;2022-07-29T03:24:09;17.90;99.90
6421;DHT22;3243;50.958;7.012;2022-07-29T03:29:16;18.10;99.90
6421;DHT22;3243;50.958;7.012;2022-07-29T03:36:41;17.90;99.90
6421;DHT22;3243;50.958;7.012;2022-07-29T03:39:09;17.80;99.90
6421;DHT22;3243;50.958;7.012;2022-07-29T03:41:38;17.80;99.90
6421;DHT22;3243;50.958;7.012;2022-07-29T03:44:06;18.00;99.90
6421;DHT22;3243;50.958;7.012;2022-07-29T03:46:35;18.00;99.90
6421;DHT22;3243;50.958;7.012;2022-07-29T03:49:04;18.20;99.90
6421;DHT22;3243;50.958;7.012;2022-07-29T03:54:01;18.30;99.90
6421;DHT22;3243;50.958;7.012;2022-07-29T03:56:44;18.40;99.90
6421;DHT22;3243;50.958;7.012;2022-07-29T03:59:15;18.30;99.90
6421;DHT22;3243;50.958;7.012;2022-07-29T04:01:43;18.40;99.90
6421;DHT22;3243;50.958;7.012;2022-07-29T04:04:11;18.40;99.90
6421;DHT22;3243;50.958;7.012;2022-07-29T04:06:40;18.30;99.90
6421;DHT22;3243;50.958;7.012;2022-07-29T04:11:36;18.30;99.90
6421;DHT22;3243;50.958;7.012;2022-07-29T04:14:24;18.30;99.90
6421;DHT22;3243;50.958;7.012;2022-07-29T04:16:51;18.30;99.90
6421;DHT22;3243;50.958;7.012;2022-07-29T04:21:45;18.40;99.90
6421;DHT22;3243;50.958;7.012;2022-07-29T04:24:11;18.50;99.90
6421;DHT22;3243;50.958;7.012;2022-07-29T04:26:39;18.50;99.90
6421;DHT22;3243;50.958;7.012;2022-07-29T04:29:05;18.50;99.90
6421;DHT22;3243;50.958;7.012;2022-07-29T04:33:59;18.60;99.90
6421;DHT22;3243;50.958;7.012;2022-07-29T04:38:55;18.50;99.90
6421;DHT22;3243;50.958;7.012;2022-07-29T04:41:22;18.50;99.90
6421;DHT22;3243;50.958;7.012;2022-07-29T04:43:58;18.50;99.90
6421;DHT22;3243;50.958;7.012;2022-07-29T04:48:54;18.60;99.90
6421;DHT22;3243;50.958;7.012;2022-07-29T04:51:21;18.50;99.90
6421;DHT22;3243;50.958;7.012;2022-07-29T04:53:48;18.50;99.90
6421;DHT22;3243;50.958;7.012;2022-07-29T04:56:15;18.60;99.90
6421;DHT22;3243;50.958;7.012;2022-07-29T04:58:42;18.60;99.90
6421;DHT22;3243;50.958;7.012;2022-07-29T05:01:08;18.60;99.90
6421;DHT22;3243;50.958;7.012;2022-07-29T05:03:35;18.70;99.90
6421;DHT22;3243;50.958;7.012;2022-07-29T05:06:02;18.70;99.90
6421;DHT22;3243;50.958;7.012;2022-07-29T05:16:11;18.80;99.90
6421;DHT22;3243;50.958;7.012;2022-07-29T05:21:06;19.00;99.90
6421;DHT22;3243;50.958;7.012;2022-07-29T05:23:33;19.00;99.90
6421;DHT22;3243;50.958;7.012;2022-07-29T05:26:00;19.00;99.90
6421;DHT22;3243;50.958;7.012;2022-07-29T05:28:27;19.10;99.90
6421;DHT22;3243;50.958;7.012;2022-07-29T05:30:53;19.10;99.90
6421;DHT22;3243;50.958;7.012;2022-07-29T05:33:20;19.20;99.90
6421;DHT22;3243;50.958;7.012;2022-07-29T05:36:01;19.20;99.90
6421;DHT22;3243;50.958;7.012;2022-07-29T05:38:28;19.40;99.90
6421;DHT22;3243;50.958;7.012;2022-07-29T05:40:57;19.30;99.90
6421;DHT22;3243;50.958;7.012;2022-07-29T05:43:25;19.50;99.90
6421;DHT22;3243;50.958;7.012;2022-07-29T05:45:52;19.60;99.90
6421;DHT22;3243;50.958;7.012;2022-07-29T05:48:18;19.70;99.90
6421;DHT22;3243;50.958;7.012;2022-07-29T05:50:45;19.60;99.90
6421;DHT22;3243;50.958;7.012;2022-07-29T05:53:12;19.70;99.90
6421;DHT22;3243;50.958;7.012;2022-07-29T05:55:46;19.80;99.90
6421;DHT22;3243;50.958;7.012;2022-07-29T05:58:12;19.90;99.90
6421;DHT22;3243;50.958;7.012;2022-07-29T06:00:39;20.00;99.90
6421;DHT22;3243;50.958;7.012;2022-07-29T06:03:06;20.10;99.90
6421;DHT22;3243;50.958;7.012;2022-07-29T06:05:33;20.10;99.90
6421;DHT22;3243;50.958;7.012;2022-07-29T06:07:59;20.20;99.90
6421;DHT22;3243;50.958;7.012;2022-07-29T06:10:26;20.30;99.90
6421;DHT22;3243;50.958;7.012;2022-07-29T06:12:53;20.40;99.90
6421;DHT22;3243;50.958;7.012;2022-07-29T06:15:20;20.40;99.90
6421;DHT22;3243;50.958;7.012;2022-07-29T06:17:47;20.60;99.90
6421;DHT22;3243;50.958;7.012;2022-07-29T06:20:30;20.70;99.90
6421;DHT22;3243;50.958;7.012;2022-07-29T06:22:58;20.80;99.90
6421;DHT22;3243;50.958;7.012;2022-07-29T06:25:25;20.90;99.90
6421;DHT22;3243;50.958;7.012;2022-07-29T06:27:52;21.00;99.90
6421;DHT22;3243;50.958;7.012;2022-07-29T06:30:19;21.10;99.90
6421;DHT22;3243;50.958;7.012;2022-07-29T06:32:46;20.90;99.90
6421;DHT22;3243;50.958;7.012;2022-07-29T06:35:13;21.00;99.90
6421;DHT22;3243;50.958;7.012;2022-07-29T06:38:00;21.00;99.90
6421;DHT22;3243;50.958;7.012;2022-07-29T06:40:27;20.90;99.90
6421;DHT22;3243;50.958;7.012;2022-07-29T06:43:13;20.90;99.90
6421;DHT22;3243;50.958;7.012;2022-07-29T06:45:40;20.90;99.90
6421;DHT22;3243;50.958;7.012;2022-07-29T06:48:09;20.80;99.90
6421;DHT22;3243;50.958;7.012;2022-07-29T06:50:36;20.70;99.90
6421;DHT22;3243;50.958;7.012;2022-07-29T06:53:03;20.50;99.90
6421;DHT22;3243;50.958;7.012;2022-07-29T06:55:30;20.40;99.90
6421;DHT22;3243;50.958;7.012;2022-07-29T06:57:57;20.40;99.90
6421;DHT22;3243;50.958;7.012;2022-07-29T07:00:23;20.20;99.90
6421;DHT22;3243;50.958;7.012;2022-07-29T07:02:50;20.10;99.90
6421;DHT22;3243;50.958;7.012;2022-07-29T07:05:17;20.10;99.90
6421;DHT22;3243;50.958;7.012;2022-07-29T07:07:44;20.00;99.90
6421;DHT22;3243;50.958;7.012;2022-07-29T07:10:11;20.10;99.90
6421;DHT22;3243;50.958;7.012;2022-07-29T07:12:37;20.00;99.90
6421;DHT22;3243;50.958;7.012;2022-07-29T07:15:05;20.00;99.90
6421;DHT22;3243;50.958;7.012;2022-07-29T07:17:32;20.00;99.90
6421;DHT22;3243;50.958;7.012;2022-07-29T07:19:58;20.20;99.90
6421;DHT22;3243;50.958;7.012;2022-07-29T07:22:25;20.30;99.90
6421;DHT22;3243;50.958;7.012;2022-07-29T07:24:52;20.30;99.90
6421;DHT22;3243;50.958;7.012;2022-07-29T07:27:18;20.60;99.90
6421;DHT22;3243;50.958;7.012;2022-07-29T07:29:45;20.80;99.90
6421;DHT22;3243;50.958;7.012;2022-07-29T07:32:12;20.70;99.90
6421;DHT22;3243;50.958;7.012;2022-07-29T07:34:40;20.90;99.90
6421;DHT22;3243;50.958;7.012;2022-07-29T07:37:06;20.90;99.90
6421;DHT22;3243;50.958;7.012;2022-07-29T07:39:33;21.10;99.90
6421;DHT22;3243;50.958;7.012;2022-07-29T07:42:00;21.30;99.90
6421;DHT22;3243;50.958;7.012;2022-07-29T07:44:28;21.20;99.90
6421;DHT22;3243;50.958;7.012;2022-07-29T07:46:54;21.20;99.90
6421;DHT22;3243;50.958;7.012;2022-07-29T07:49:21;21.10;99.90
6421;DHT22;3243;50.958;7.012;2022-07-29T07:51:48;21.20;99.90
6421;DHT22;3243;50.958;7.012;2022-07-29T07:54:16;21.20;99.90
6421;DHT22;3243;50.958;7.012;2022-07-29T07:56:46;21.10;99.90
6421;DHT22;3243;50.958;7.012;2022-07-29T07:59:18;21.00;99.90
6421;DHT22;3243;50.958;7.012;2022-07-29T08:01:45;21.00;99.90
6421;DHT22;3243;50.958;7.012;2022-07-29T08:04:21;21.00;99.90
6421;DHT22;3243;50.958;7.012;2022-07-29T08:06:54;21.00;99.90
6421;DHT22;3243;50.958;7.012;2022-07-29T08:09:21;21.00;99.90
6421;DHT22;3243;50.958;7.012;2022-07-29T08:11:56;20.90;99.90
6421;DHT22;3243;50.958;7.012;2022-07-29T08:14:23;20.90;99.90
6421;DHT22;3243;50.958;7.012;2022-07-29T08:16:50;21.00;99.90
6421;DHT22;3243;50.958;7.012;2022-07-29T08:19:18;21.20;99.90
6421;DHT22;3243;50.958;7.012;2022-07-29T08:21:44;21.20;99.90
6421;DHT22;3243;50.958;7.012;2022-07-29T08:24:11;21.30;99.90
6421;DHT22;3243;50.958;7.012;2022-07-29T08:26:57;21.40;99.90
6421;DHT22;3243;50.958;7.012;2022-07-29T08:29:24;21.40;99.90
6421;DHT22;3243;50.958;7.012;2022-07-29T08:31:50;21.40;99.90
6421;DHT22;3243;50.958;7.012;2022-07-29T08:34:18;21.20;99.90
6421;DHT22;3243;50.958;7.012;2022-07-29T08:36:52;21.30;99.90
6421;DHT22;3243;50.958;7.012;2022-07-29T08:39:19;21.30;99.90
6421;DHT22;3243;50.958;7.012;2022-07-29T08:41:45;21.40;99.90
6421;DHT22;3243;50.958;7.012;2022-07-29T08:44:23;21.40;99.90
6421;DHT22;3243;50.958;7.012;2022-07-29T08:46:56;21.40;99.90
6421;DHT22;3243;50.958;7.012;2022-07-29T08:49:23;21.40;99.90
6421;DHT22;3243;50.958;7.012;2022-07-29T08:51:51;21.40;99.90
6421;DHT22;3243;50.958;7.012;2022-07-29T08:54:21;21.40;99.90
6421;DHT22;3243;50.958;7.012;2022-07-29T08:56:50;21.60;99.90
6421;DHT22;3243;50.958;7.012;2022-07-29T08:59:22;21.70;99.90
6421;DHT22;3243;50.958;7.012;2022-07-29T09:01:52;21.70;99.90
6421;DHT22;3243;50.958;7.012;2022-07-29T09:04:20;21.70;99.90
6421;DHT22;3243;50.958;7.012;2022-07-29T09:06:50;21.90;99.90
6421;DHT22;3243;50.958;7.012;2022-07-29T09:09:17;22.00;99.90
6421;DHT22;3243;50.958;7.012;2022-07-29T09:11:44;22.10;99.90
6421;DHT22;3243;50.958;7.012;2022-07-29T09:14:12;22.30;99.90
6421;DHT22;3243;50.958;7.012;2022-07-29T09:16:53;22.60;99.90
6421;DHT22;3243;50.958;7.012;2022-07-29T09:19:32;22.80;99.90
6421;DHT22;3243;50.958;7.012;2022-07-29T09:22:05;23.00;99.90
6421;DHT22;3243;50.958;7.012;2022-07-29T09:27:21;23.10;99.90
6421;DHT22;3243;50.958;7.012;2022-07-29T09:30:03;23.10;99.90
6421;DHT22;3243;50.958;7.012;2022-07-29T09:32:31;23.20;99.90
6421;DHT22;3243;50.958;7.012;2022-07-29T09:37:43;23.40;99.90
6421;DHT22;3243;50.958;7.012;2022-07-29T09:40:15;23.50;99.90
6421;DHT22;3243;50.958;7.012;2022-07-29T09:42:43;23.50;99.90
6421;DHT22;3243;50.958;7.012;2022-07-29T09:45:11;23.50;99.90
6421;DHT22;3243;50.958;7.012;2022-07-29T09:47:46;23.70;99.90
6421;DHT22;3243;50.958;7.012;2022-07-29T09:50:20;23.90;99.90
6421;DHT22;3243;50.958;7.012;2022-07-29T09:53:07;24.30;99.90
6421;DHT22;3243;50.958;7.012;2022-07-29T09:55:49;24.80;99.90
6421;DHT22;3243;50.958;7.012;2022-07-29T09:58:21;25.00;99.90
6421;DHT22;3243;50.958;7.012;2022-07-29T10:00:50;25.20;99.90
6421;DHT22;3243;50.958;7.012;2022-07-29T10:03:17;24.90;99.90
6421;DHT22;3243;50.958;7.012;2022-07-29T10:05:45;24.80;99.90
6421;DHT22;3243;50.958;7.012;2022-07-29T10:08:12;24.70;99.90
6421;DHT22;3243;50.958;7.012;2022-07-29T10:10:42;24.50;99.90
6421;DHT22;3243;50.958;7.012;2022-07-29T10:13:13;24.40;99.90
6421;DHT22;3243;50.958;7.012;2022-07-29T10:15:43;24.40;99.90
6421;DHT22;3243;50.958;7.012;2022-07-29T10:18:13;24.10;99.90
6421;DHT22;3243;50.958;7.012;2022-07-29T10:20:41;24.10;99.90
6421;DHT22;3243;50.958;7.012;2022-07-29T10:23:08;23.90;99.90
6421;DHT22;3243;50.958;7.012;2022-07-29T10:25:35;23.50;99.90
6421;DHT22;3243;50.958;7.012;2022-07-29T10:28:02;23.50;99.90
6421;DHT22;3243;50.958;7.012;2022-07-29T10:30:31;23.50;99.90
6421;DHT22;3243;50.958;7.012;2022-07-29T10:41:55;23.70;99.90
6421;DHT22;3243;50.958;7.012;2022-07-29T10:44:25;24.00;99.90
6421;DHT22;3243;50.958;7.012;2022-07-29T10:46:52;24.00;99.90
6421;DHT22;3243;50.958;7.012;2022-07-29T10:49:23;23.90;99.90
6421;DHT22;3243;50.958;7.012;2022-07-29T10:52:07;23.90;99.90
6421;DHT22;3243;50.958;7.012;2022-07-29T10:57:24;24.50;99.90
6421;DHT22;3243;50.958;7.012;2022-07-29T11:02:44;24.50;99.90
6421;DHT22;3243;50.958;7.012;2022-07-29T11:05:17;24.70;99.90
6421;DHT22;3243;50.958;7.012;2022-07-29T11:10:45;24.80;99.90
6421;DHT22;3243;50.958;7.012;2022-07-29T11:13:51;25.10;99.90
6421;DHT22;3243;50.958;7.012;2022-07-29T11:17:02;24.90;99.90
6421;DHT22;3243;50.958;7.012;2022-07-29T11:19:49;24.80;99.90
6421;DHT22;3243;50.958;7.012;2022-07-29T11:22:36;24.90;99.90
6421;DHT22;3243;50.958;7.012;2022-07-29T11:25:17;25.00;99.90
6421;DHT22;3243;50.958;7.012;2022-07-29T11:27:44;25.00;99.90
6421;DHT22;3243;50.958;7.012;2022-07-29T11:30:11;25.30;99.90
6421;DHT22;3243;50.958;7.012;2022-07-29T11:32:41;25.20;99.90
6421;DHT22;3243;50.958;7.012;2022-07-29T11:49:22;25.10;99.90
6421;DHT22;3243;50.958;7.012;2022-07-29T11:52:10;25.40;99.90
6421;DHT22;3243;50.958;7.012;2022-07-29T11:54:42;25.50;99.90
6421;DHT22;3243;50.958;7.012;2022-07-29T11:57:26;25.30;99.90
6421;DHT22;3243;50.958;7.012;2022-07-29T12:00:05;25.30;99.90
6421;DHT22;3243;50.958;7.012;2022-07-29T12:02:40;25.30;99.90
6421;DHT22;3243;50.958;7.012;2022-07-29T12:05:10;25.40;99.90
6421;DHT22;3243;50.958;7.012;2022-07-29T12:07:39;25.30;99.90
6421;DHT22;3243;50.958;7.012;2022-07-29T12:10:13;25.00;99.90
6421;DHT22;3243;50.958;7.012;2022-07-29T12:12:55;25.10;99.90
6421;DHT22;3243;50.958;7.012;2022-07-29T12:15:22;25.10;99.90
6421;DHT22;3243;50.958;7.012;2022-07-29T12:18:15;25.10;99.90
6421;DHT22;3243;50.958;7.012;2022-07-29T12:20:44;25.00;99.90
6421;DHT22;3243;50.958;7.012;2022-07-29T12:23:11;25.20;99.90
6421;DHT22;3243;50.958;7.012;2022-07-29T12:25:40;25.20;99.90
6421;DHT22;3243;50.958;7.012;2022-07-29T12:28:13;25.00;99.90
6421;DHT22;3243;50.958;7.012;2022-07-29T12:30:52;25.00;99.90
6421;DHT22;3243;50.958;7.012;2022-07-29T12:33:20;25.00;99.90
6421;DHT22;3243;50.958;7.012;2022-07-29T12:36:10;25.10;99.90
6421;DHT22;3243;50.958;7.012;2022-07-29T12:38:43;25.00;99.90
6421;DHT22;3243;50.958;7.012;2022-07-29T12:41:11;25.00;99.90
6421;DHT22;3243;50.958;7.012;2022-07-29T12:43:52;25.10;99.90
6421;DHT22;3243;50.958;7.012;2022-07-29T12:46:19;25.20;99.90
6421;DHT22;3243;50.958;7.012;2022-07-29T12:48:50;25.40;99.90
6421;DHT22;3243;50.958;7.012;2022-07-29T12:51:32;25.90;99.90
6421;DHT22;3243;50.958;7.012;2022-07-29T12:54:05;26.10;99.90
6421;DHT22;3243;50.958;7.012;2022-07-29T12:56:32;26.10;99.90
6421;DHT22;3243;50.958;7.012;2022-07-29T12:59:21;26.30;99.90
6421;DHT22;3243;50.958;7.012;2022-07-29T13:01:50;26.20;99.90
6421;DHT22;3243;50.958;7.012;2022-07-29T13:04:30;26.10;99.90
6421;DHT22;3243;50.958;7.012;2022-07-29T13:07:05;26.10;99.90
6421;DHT22;3243;50.958;7.012;2022-07-29T13:09:44;25.70;99.90
6421;DHT22;3243;50.958;7.012;2022-07-29T13:12:13;25.70;99.90
6421;DHT22;3243;50.958;7.012;2022-07-29T13:14:46;25.80;99.90
6421;DHT22;3243;50.958;7.012;2022-07-29T13:17:26;25.80;99.90
6421;DHT22;3243;50.958;7.012;2022-07-29T13:20:06;25.90;99.90
6421;DHT22;3243;50.958;7.012;2022-07-29T13:22:35;25.90;99.90
6421;DHT22;3243;50.958;7.012;2022-07-29T13:25:09;26.10;99.90
6421;DHT22;3243;50.958;7.012;2022-07-29T13:27:38;26.10;99.90
6421;DHT22;3243;50.958;7.012;2022-07-29T13:30:07;26.00;99.90
6421;DHT22;3243;50.958;7.012;2022-07-29T13:32:35;26.00;99.90
6421;DHT22;3243;50.958;7.012;2022-07-29T13:35:05;26.10;99.90
6421;DHT22;3243;50.958;7.012;2022-07-29T13:37:36;26.20;99.90
6421;DHT22;3243;50.958;7.012;2022-07-29T13:40:06;26.20;99.90
6421;DHT22;3243;50.958;7.012;2022-07-29T13:42:34;26.00;99.90
6421;DHT22;3243;50.958;7.012;2022-07-29T13:45:01;26.20;99.90
6421;DHT22;3243;50.958;7.012;2022-07-29T13:47:28;26.20;99.90
6421;DHT22;3243;50.958;7.012;2022-07-29T13:49:59;26.00;99.90
6421;DHT22;3243;50.958;7.012;2022-07-29T13:52:26;26.00;99.90
6421;DHT22;3243;50.958;7.012;2022-07-29T13:54:53;25.90;99.90
6421;DHT22;3243;50.958;7.012;2022-07-29T13:57:19;25.80;99.90
6421;DHT22;3243;50.958;7.012;2022-07-29T13:59:46;25.80;99.90
6421;DHT22;3243;50.958;7.012;2022-07-29T14:02:19;26.30;99.90
6421;DHT22;3243;50.958;7.012;2022-07-29T14:04:51;26.30;99.90
6421;DHT22;3243;50.958;7.012;2022-07-29T14:07:18;26.30;99.90
6421;DHT22;3243;50.958;7.012;2022-07-29T14:09:44;26.30;99.90
6421;DHT22;3243;50.958;7.012;2022-07-29T14:12:11;26.30;99.90
6421;DHT22;3243;50.958;7.012;2022-07-29T14:14:38;26.20;99.90
6421;DHT22;3243;50.958;7.012;2022-07-29T14:17:05;26.10;99.90
6421;DHT22;3243;50.958;7.012;2022-07-29T14:19:33;25.90;99.90
6421;DHT22;3243;50.958;7.012;2022-07-29T14:22:03;25.90;99.90
6421;DHT22;3243;50.958;7.012;2022-07-29T14:24:31;25.90;99.90
6421;DHT22;3243;50.958;7.012;2022-07-29T14:27:02;25.90;99.90
6421;DHT22;3243;50.958;7.012;2022-07-29T14:29:29;25.90;99.90
6421;DHT22;3243;50.958;7.012;2022-07-29T14:32:05;25.90;99.90
6421;DHT22;3243;50.958;7.012;2022-07-29T14:34:34;25.90;99.90
6421;DHT22;3243;50.958;7.012;2022-07-29T14:37:02;25.90;99.90
6421;DHT22;3243;50.958;7.012;2022-07-29T14:39:31;25.90;99.90
6421;DHT22;3243;50.958;7.012;2022-07-29T14:41:58;25.50;99.90
6421;DHT22;3243;50.958;7.012;2022-07-29T14:44:26;25.30;99.90
6421;DHT22;3243;50.958;7.012;2022-07-29T14:47:00;25.20;99.90
6421;DHT22;3243;50.958;7.012;2022-07-29T14:49:33;25.30;99.90
6421;DHT22;3243;50.958;7.012;2022-07-29T14:52:00;25.30;99.90
6421;DHT22;3243;50.958;7.012;2022-07-29T14:54:27;25.70;99.90
6421;DHT22;3243;50.958;7.012;2022-07-29T14:56:54;25.70;99.90
6421;DHT22;3243;50.958;7.012;2022-07-29T14:59:24;25.80;99.90
6421;DHT22;3243;50.958;7.012;2022-07-29T15:01:51;25.80;99.90
6421;DHT22;3243;50.958;7.012;2022-07-29T15:04:18;25.80;99.90
6421;DHT22;3243;50.958;7.012;2022-07-29T15:06:45;25.70;99.90
6421;DHT22;3243;50.958;7.012;2022-07-29T15:09:12;25.80;99.90
6421;DHT22;3243;50.958;7.012;2022-07-29T15:11:39;25.70;99.90
6421;DHT22;3243;50.958;7.012;2022-07-29T15:14:06;25.70;99.90
6421;DHT22;3243;50.958;7.012;2022-07-29T15:16:36;25.80;99.90
6421;DHT22;3243;50.958;7.012;2022-07-29T15:19:04;25.70;99.90
6421;DHT22;3243;50.958;7.012;2022-07-29T15:21:31;25.70;99.90
6421;DHT22;3243;50.958;7.012;2022-07-29T15:23:58;25.30;99.90
6421;DHT22;3243;50.958;7.012;2022-07-29T15:26:25;25.20;99.90
6421;DHT22;3243;50.958;7.012;2022-07-29T15:28:52;25.00;99.90
6421;DHT22;3243;50.958;7.012;2022-07-29T15:31:18;24.90;99.90
6421;DHT22;3243;50.958;7.012;2022-07-29T15:33:45;24.80;99.90
6421;DHT22;3243;50.958;7.012;2022-07-29T15:36:12;24.80;99.90
6421;DHT22;3243;50.958;7.012;2022-07-29T15:39:00;24.90;99.90
6421;DHT22;3243;50.958;7.012;2022-07-29T15:43:54;25.20;99.90
6421;DHT22;3243;50.958;7.012;2022-07-29T15:46:21;25.20;99.90
6421;DHT22;3243;50.958;7.012;2022-07-29T15:49:07;25.40;99.90
6421;DHT22;3243;50.958;7.012;2022-07-29T15:51:34;25.50;99.90
6421;DHT22;3243;50.958;7.012;2022-07-29T15:54:02;25.60;99.90
6421;DHT22;3243;50.958;7.012;2022-07-29T15:56:29;25.60;99.90
6421;DHT22;3243;50.958;7.012;2022-07-29T15:58:57;25.60;99.90
6421;DHT22;3243;50.958;7.012;2022-07-29T16:01:24;25.60;99.90
6421;DHT22;3243;50.958;7.012;2022-07-29T16:03:52;25.50;99.90
6421;DHT22;3243;50.958;7.012;2022-07-29T16:06:19;25.50;99.90
6421;DHT22;3243;50.958;7.012;2022-07-29T16:08:46;25.30;99.90
6421;DHT22;3243;50.958;7.012;2022-07-29T16:11:13;25.30;99.90
6421;DHT22;3243;50.958;7.012;2022-07-29T16:13:40;25.30;99.90
6421;DHT22;3243;50.958;7.012;2022-07-29T16:16:06;25.30;99.90
6421;DHT22;3243;50.958;7.012;2022-07-29T16:18:34;25.30;99.90
6421;DHT22;3243;50.958;7.012;2022-07-29T16:21:01;25.20;99.90
6421;DHT22;3243;50.958;7.012;2022-07-29T16:23:28;25.20;99.90
6421;DHT22;3243;50.958;7.012;2022-07-29T16:25:54;25.10;99.90
6421;DHT22;3243;50.958;7.012;2022-07-29T16:28:27;25.00;99.90
6421;DHT22;3243;50.958;7.012;2022-07-29T16:30:55;25.00;99.90
6421;DHT22;3243;50.958;7.012;2022-07-29T16:33:23;24.90;99.90
6421;DHT22;3243;50.958;7.012;2022-07-29T16:35:50;24.80;99.90
6421;DHT22;3243;50.958;7.012;2022-07-29T16:38:17;24.70;99.90
6421;DHT22;3243;50.958;7.012;2022-07-29T16:40:44;24.70;99.90
6421;DHT22;3243;50.958;7.012;2022-07-29T16:45:38;24.50;99.90
6421;DHT22;3243;50.958;7.012;2022-07-29T16:48:15;24.50;99.90
6421;DHT22;3243;50.958;7.012;2022-07-29T16:50:44;24.30;99.90
6421;DHT22;3243;50.958;7.012;2022-07-29T16:55:38;24.20;99.90
6421;DHT22;3243;50.958;7.012;2022-07-29T16:58:08;24.20;99.90
6421;DHT22;3243;50.958;7.012;2022-07-29T17:00:35;24.20;99.90
6421;DHT22;3243;50.958;7.012;2022-07-29T17:03:02;24.20;99.90
6421;DHT22;3243;50.958;7.012;2022-07-29T17:05:31;24.20;99.90
6421;DHT22;3243;50.958;7.012;2022-07-29T17:08:18;24.40;99.90
6421;DHT22;3243;50.958;7.012;2022-07-29T17:10:45;24.50;99.90
6421;DHT22;3243;50.958;7.012;2022-07-29T17:13:12;24.60;99.90
6421;DHT22;3243;50.958;7.012;2022-07-29T17:15:39;24.60;99.90
6421;DHT22;3243;50.958;7.012;2022-07-29T17:18:08;24.80;99.90
6421;DHT22;3243;50.958;7.012;2022-07-29T17:20:40;24.70;99.90
6421;DHT22;3243;50.958;7.012;2022-07-29T17:23:07;24.70;99.90
6421;DHT22;3243;50.958;7.012;2022-07-29T17:25:34;24.70;99.90
6421;DHT22;3243;50.958;7.012;2022-07-29T17:28:01;24.80;99.90
6421;DHT22;3243;50.958;7.012;2022-07-29T17:30:28;24.80;99.90
6421;DHT22;3243;50.958;7.012;2022-07-29T17:32:55;24.80;99.90
6421;DHT22;3243;50.958;7.012;2022-07-29T17:35:22;24.70;99.90
6421;DHT22;3243;50.958;7.012;2022-07-29T17:38:09;24.70;99.90
6421;DHT22;3243;50.958;7.012;2022-07-29T17:40:36;24.70;99.90
6421;DHT22;3243;50.958;7.012;2022-07-29T17:43:02;24.80;99.90
6421;DHT22;3243;50.958;7.012;2022-07-29T17:45:30;24.70;99.90
6421;DHT22;3243;50.958;7.012;2022-07-29T17:48:16;24.80;99.90
6421;DHT22;3243;50.958;7.012;2022-07-29T17:50:42;24.80;99.90
6421;DHT22;3243;50.958;7.012;2022-07-29T17:53:11;24.90;99.90
6421;DHT22;3243;50.958;7.012;2022-07-29T17:55:43;24.80;99.90
6421;DHT22;3243;50.958;7.012;2022-07-29T17:58:11;24.80;99.90
6421;DHT22;3243;50.958;7.012;2022-07-29T18:00:38;24.80;99.90
6421;DHT22;3243;50.958;7.012;2022-07-29T18:03:05;24.70;99.90
6421;DHT22;3243;50.958;7.012;2022-07-29T18:05:32;24.70;99.90
6421;DHT22;3243;50.958;7.012;2022-07-29T18:07:58;24.70;99.90
6421;DHT22;3243;50.958;7.012;2022-07-29T18:10:26;24.70;99.90